Home   Weather   Germany   Rheinberg   Past weeks
Flag for Germany

Past Weather in Rheinberg, North Rhine-Westphalia, Germany — Yesterday and Last 2 Weeks

Currently: 48 °F. Clear. (Weather station: Duesseldorf, Germany). See more current weather

Past Weather in Rheinberg — Graph

°F

Rheinberg Temperature Yesterday

Maximum temperature yesterday: 63 °F (at 3:50 pm)
Minimum temperature yesterday: 30 °F (at 2:50 am)
Average temperature yesterday: 46 °F

High & Low Weather Summary for the Past Weeks

 TemperatureHumidityPressure
High68 °F (Feb 24, 2:20 pm)100% (Feb 16, 4:20 am)30.74 "Hg (Feb 16, 4:20 am)
Low30 °F (Mar 2, 2:50 am)37% (Mar 2, 4:20 pm)29.71 "Hg (Feb 18, 5:20 pm)
Average50 °F72%30.25 "Hg
* Reported Feb 16 2:20 am — Mar 3 2:20 am, Rheinberg. Weather by CustomWeather, © 2021

Note: Actual official high and low records may vary slightly from our data, if they occured in-between our weather recording intervals... More about our weather records

Rheinberg Weather History for the Previous 24 Hours

Scroll right to see more
 ConditionsComfort  
Time TempWeatherWind HumidityBarometerVisibility
2:20 am
Wed, Mar 3
48 °FClear.14 mph62%30.39 "Hg10 mi
1:50 am48 °FClear.13 mph62%30.39 "Hg10 mi
1:20 am48 °FClear.13 mph62%30.39 "Hg10 mi
12:50 am48 °FClear.12 mph66%30.39 "Hg10 mi
12:20 am50 °FClear.12 mph62%30.39 "Hg10 mi
11:50 pm
Tue, Mar 2
50 °FClear.13 mph62%30.39 "Hg10 mi
11:20 pm50 °FClear.13 mph62%30.39 "Hg10 mi
10:50 pm50 °FClear.12 mph62%30.39 "Hg10 mi
10:20 pm52 °FClear.13 mph58%30.39 "Hg10 mi
9:50 pm52 °FClear.12 mph54%30.39 "Hg10 mi
9:20 pm52 °FClear.10 mph58%30.39 "Hg10 mi
8:50 pm54 °FClear.9 mph51%30.39 "Hg10 mi
8:20 pm46 °FClear.7 mph66%30.39 "Hg10 mi
7:50 pm48 °FClear.7 mph62%30.39 "Hg10 mi
7:20 pm48 °FClear.6 mph58%30.39 "Hg10 mi
6:50 pm48 °FClear.6 mph58%30.39 "Hg10 mi
6:20 pm54 °FClear.5 mph51%30.39 "Hg10 mi
5:50 pm57 °FSunny.5 mph44%30.39 "Hg10 mi
5:20 pm59 °FSunny.6 mph42%30.39 "Hg10 mi
4:50 pm63 °FSunny.3 mph42%30.39 "Hg10 mi
4:20 pm63 °FPassing clouds.6 mph37%30.39 "HgN/A
3:50 pm63 °FPassing clouds.5 mph39%30.39 "HgN/A
3:20 pm61 °FPassing clouds.7 mph39%30.42 "HgN/A
2:50 pm61 °FPassing clouds.9 mph39%30.42 "HgN/A
2:20 pm61 °FSunny.8 mph42%30.42 "Hg10 mi
1:50 pm61 °FPassing clouds.8 mph39%30.42 "HgN/A
12:50 pm59 °FPassing clouds.10 mph45%30.42 "HgN/A
12:20 pm57 °FSunny.13 mph48%30.45 "Hg10 mi
11:50 am55 °FSunny.13 mph51%30.45 "Hg10 mi
11:20 am55 °FSunny.10 mph51%30.45 "Hg10 mi
10:50 am54 °FPassing clouds.9 mph54%30.45 "HgN/A
10:20 am52 °FSunny.8 mph58%30.45 "Hg10 mi
9:50 am48 °FSunny.1 mph71%30.45 "Hg10 mi
9:20 am43 °FSunny.1 mph81%30.45 "Hg10 mi
8:50 am39 °FSunny.2 mph87%30.45 "Hg10 mi
8:20 am36 °FPassing clouds.3 mph87%30.45 "HgN/A
7:50 am32 °FSunny.2 mph93%30.45 "Hg10 mi
7:20 am32 °FSunny.2 mph93%30.45 "Hg10 mi
6:50 am30 °FClear.1 mph93%30.45 "Hg10 mi
6:20 am30 °FClear.5 mph93%30.45 "Hg10 mi
5:50 am30 °FClear.2 mph93%30.45 "Hg10 mi
5:20 am30 °FClear.2 mph93%30.45 "Hg10 mi
4:50 am30 °FClear.2 mph100%30.45 "Hg10 mi
4:20 am30 °FClear.2 mph100%30.45 "Hg10 mi
3:50 am32 °FClear.3 mph100%30.45 "Hg10 mi
3:20 am32 °FClear.3 mph93%30.45 "Hg10 mi
Weather by CustomWeather, © 2021

See weather overview